sensor_id;sensor_type;location;lat;lon;timestamp;P1;durP1;ratioP1;P2;durP2;ratioP2
6860;SDS011;3469;47.060;15.460;2024-03-02T00:01:49;72.53;;;38.10;;
6860;SDS011;3469;47.060;15.460;2024-03-02T00:04:19;64.10;;;36.77;;
6860;SDS011;3469;47.060;15.460;2024-03-02T00:06:51;64.23;;;33.97;;
6860;SDS011;3469;47.060;15.460;2024-03-02T00:09:21;73.53;;;36.30;;
6860;SDS011;3469;47.060;15.460;2024-03-02T00:11:55;70.73;;;36.10;;
6860;SDS011;3469;47.060;15.460;2024-03-02T00:14:25;59.70;;;35.07;;
6860;SDS011;3469;47.060;15.460;2024-03-02T00:16:59;63.27;;;35.87;;
6860;SDS011;3469;47.060;15.460;2024-03-02T00:19:29;63.83;;;33.80;;
6860;SDS011;3469;47.060;15.460;2024-03-02T00:22:00;67.33;;;36.40;;
6860;SDS011;3469;47.060;15.460;2024-03-02T00:24:31;64.33;;;35.33;;
6860;SDS011;3469;47.060;15.460;2024-03-02T00:27:05;64.07;;;37.53;;
6860;SDS011;3469;47.060;15.460;2024-03-02T00:29:38;71.93;;;36.10;;
6860;SDS011;3469;47.060;15.460;2024-03-02T00:32:10;64.37;;;36.00;;
6860;SDS011;3469;47.060;15.460;2024-03-02T00:34:42;67.83;;;36.30;;
6860;SDS011;3469;47.060;15.460;2024-03-02T00:37:12;67.17;;;34.90;;
6860;SDS011;3469;47.060;15.460;2024-03-02T00:39:44;64.17;;;34.53;;
6860;SDS011;3469;47.060;15.460;2024-03-02T00:42:21;62.83;;;34.87;;
6860;SDS011;3469;47.060;15.460;2024-03-02T00:44:51;64.67;;;33.80;;
6860;SDS011;3469;47.060;15.460;2024-03-02T00:47:22;56.00;;;33.57;;
6860;SDS011;3469;47.060;15.460;2024-03-02T00:49:52;60.37;;;33.40;;
6860;SDS011;3469;47.060;15.460;2024-03-02T00:52:23;62.63;;;34.00;;
6860;SDS011;3469;47.060;15.460;2024-03-02T00:54:55;59.50;;;32.17;;
6860;SDS011;3469;47.060;15.460;2024-03-02T00:57:27;59.27;;;34.20;;
6860;SDS011;3469;47.060;15.460;2024-03-02T01:00:01;69.13;;;37.33;;
6860;SDS011;3469;47.060;15.460;2024-03-02T01:02:37;64.07;;;34.67;;
6860;SDS011;3469;47.060;15.460;2024-03-02T01:05:07;62.13;;;35.10;;
6860;SDS011;3469;47.060;15.460;2024-03-02T01:07:38;62.57;;;35.37;;
6860;SDS011;3469;47.060;15.460;2024-03-02T01:10:09;57.40;;;31.17;;
6860;SDS011;3469;47.060;15.460;2024-03-02T01:12:42;53.97;;;33.00;;
6860;SDS011;3469;47.060;15.460;2024-03-02T01:15:13;55.63;;;31.93;;
6860;SDS011;3469;47.060;15.460;2024-03-02T01:17:46;55.37;;;30.03;;
6860;SDS011;3469;47.060;15.460;2024-03-02T01:20:21;55.50;;;28.30;;
6860;SDS011;3469;47.060;15.460;2024-03-02T01:22:52;51.47;;;30.80;;
6860;SDS011;3469;47.060;15.460;2024-03-02T01:25:23;55.07;;;29.47;;
6860;SDS011;3469;47.060;15.460;2024-03-02T01:27:55;69.83;;;33.80;;
6860;SDS011;3469;47.060;15.460;2024-03-02T01:30:26;53.83;;;31.80;;
6860;SDS011;3469;47.060;15.460;2024-03-02T01:32:56;57.43;;;33.13;;
6860;SDS011;3469;47.060;15.460;2024-03-02T01:35:29;68.57;;;34.57;;
6860;SDS011;3469;47.060;15.460;2024-03-02T01:38:00;62.70;;;33.73;;
6860;SDS011;3469;47.060;15.460;2024-03-02T01:40:30;55.27;;;30.97;;
6860;SDS011;3469;47.060;15.460;2024-03-02T01:43:03;68.70;;;34.90;;
6860;SDS011;3469;47.060;15.460;2024-03-02T01:45:34;62.83;;;33.80;;
6860;SDS011;3469;47.060;15.460;2024-03-02T01:48:05;59.47;;;31.07;;
6860;SDS011;3469;47.060;15.460;2024-03-02T01:50:36;58.27;;;30.50;;
6860;SDS011;3469;47.060;15.460;2024-03-02T01:53:07;60.87;;;31.67;;
6860;SDS011;3469;47.060;15.460;2024-03-02T01:55:38;47.27;;;28.80;;
6860;SDS011;3469;47.060;15.460;2024-03-02T01:58:11;53.33;;;31.03;;
6860;SDS011;3469;47.060;15.460;2024-03-02T02:00:42;55.13;;;29.17;;
6860;SDS011;3469;47.060;15.460;2024-03-02T02:03:12;52.30;;;29.17;;
6860;SDS011;3469;47.060;15.460;2024-03-02T02:05:43;60.67;;;30.80;;
6860;SDS011;3469;47.060;15.460;2024-03-02T02:08:16;53.73;;;28.27;;
6860;SDS011;3469;47.060;15.460;2024-03-02T02:10:47;56.93;;;30.43;;
6860;SDS011;3469;47.060;15.460;2024-03-02T02:13:20;58.40;;;29.90;;
6860;SDS011;3469;47.060;15.460;2024-03-02T02:15:51;50.57;;;28.43;;
6860;SDS011;3469;47.060;15.460;2024-03-02T02:18:21;51.13;;;28.50;;
6860;SDS011;3469;47.060;15.460;2024-03-02T02:20:52;53.80;;;30.17;;
6860;SDS011;3469;47.060;15.460;2024-03-02T02:23:25;63.23;;;30.90;;
6860;SDS011;3469;47.060;15.460;2024-03-02T02:25:55;53.20;;;28.80;;
6860;SDS011;3469;47.060;15.460;2024-03-02T02:28:26;51.30;;;29.33;;
6860;SDS011;3469;47.060;15.460;2024-03-02T02:30:56;44.37;;;25.03;;
6860;SDS011;3469;47.060;15.460;2024-03-02T02:33:27;45.80;;;27.20;;
6860;SDS011;3469;47.060;15.460;2024-03-02T02:35:59;48.83;;;27.37;;
6860;SDS011;3469;47.060;15.460;2024-03-02T02:38:32;51.20;;;28.13;;
6860;SDS011;3469;47.060;15.460;2024-03-02T02:41:03;52.93;;;29.17;;
6860;SDS011;3469;47.060;15.460;2024-03-02T02:43:34;50.60;;;27.00;;
6860;SDS011;3469;47.060;15.460;2024-03-02T02:46:04;48.03;;;27.00;;
6860;SDS011;3469;47.060;15.460;2024-03-02T02:48:34;47.60;;;26.70;;
6860;SDS011;3469;47.060;15.460;2024-03-02T02:51:04;46.67;;;28.10;;
6860;SDS011;3469;47.060;15.460;2024-03-02T02:53:37;50.47;;;29.20;;
6860;SDS011;3469;47.060;15.460;2024-03-02T02:56:10;50.03;;;28.30;;
6860;SDS011;3469;47.060;15.460;2024-03-02T02:58:40;50.60;;;30.20;;
6860;SDS011;3469;47.060;15.460;2024-03-02T03:01:10;47.97;;;29.20;;
6860;SDS011;3469;47.060;15.460;2024-03-02T03:03:41;50.03;;;28.10;;
6860;SDS011;3469;47.060;15.460;2024-03-02T03:06:12;56.13;;;29.33;;
6860;SDS011;3469;47.060;15.460;2024-03-02T03:08:45;54.60;;;28.17;;
6860;SDS011;3469;47.060;15.460;2024-03-02T03:11:17;51.57;;;28.60;;
6860;SDS011;3469;47.060;15.460;2024-03-02T03:13:49;51.10;;;27.43;;
6860;SDS011;3469;47.060;15.460;2024-03-02T03:16:21;55.87;;;27.93;;
6860;SDS011;3469;47.060;15.460;2024-03-02T03:18:51;50.87;;;28.03;;
6860;SDS011;3469;47.060;15.460;2024-03-02T03:21:22;46.23;;;26.37;;
6860;SDS011;3469;47.060;15.460;2024-03-02T03:23:55;46.10;;;25.27;;
6860;SDS011;3469;47.060;15.460;2024-03-02T03:26:26;53.13;;;27.90;;
6860;SDS011;3469;47.060;15.460;2024-03-02T03:28:57;45.00;;;26.70;;
6860;SDS011;3469;47.060;15.460;2024-03-02T03:31:29;52.43;;;28.00;;
6860;SDS011;3469;47.060;15.460;2024-03-02T03:33:59;55.00;;;28.57;;
6860;SDS011;3469;47.060;15.460;2024-03-02T03:36:30;51.03;;;28.73;;
6860;SDS011;3469;47.060;15.460;2024-03-02T03:39:03;48.37;;;29.50;;
6860;SDS011;3469;47.060;15.460;2024-03-02T03:41:34;52.53;;;30.23;;
6860;SDS011;3469;47.060;15.460;2024-03-02T03:44:04;54.67;;;29.53;;
6860;SDS011;3469;47.060;15.460;2024-03-02T03:46:34;48.17;;;27.23;;
6860;SDS011;3469;47.060;15.460;2024-03-02T03:49:05;48.67;;;28.37;;
6860;SDS011;3469;47.060;15.460;2024-03-02T03:51:35;47.00;;;27.13;;
6860;SDS011;3469;47.060;15.460;2024-03-02T03:54:08;46.10;;;26.83;;
6860;SDS011;3469;47.060;15.460;2024-03-02T03:56:38;41.50;;;23.57;;
6860;SDS011;3469;47.060;15.460;2024-03-02T03:59:09;50.13;;;28.13;;
6860;SDS011;3469;47.060;15.460;2024-03-02T04:01:40;49.47;;;26.20;;
6860;SDS011;3469;47.060;15.460;2024-03-02T04:04:10;45.97;;;27.90;;
6860;SDS011;3469;47.060;15.460;2024-03-02T04:06:40;49.53;;;29.00;;
6860;SDS011;3469;47.060;15.460;2024-03-02T04:09:14;44.60;;;26.50;;
6860;SDS011;3469;47.060;15.460;2024-03-02T04:11:46;46.20;;;27.57;;
6860;SDS011;3469;47.060;15.460;2024-03-02T04:14:16;44.50;;;28.13;;
6860;SDS011;3469;47.060;15.460;2024-03-02T04:16:47;49.73;;;27.13;;
6860;SDS011;3469;47.060;15.460;2024-03-02T04:19:17;46.80;;;28.33;;
6860;SDS011;3469;47.060;15.460;2024-03-02T04:21:47;49.40;;;27.50;;
6860;SDS011;3469;47.060;15.460;2024-03-02T04:24:21;48.07;;;26.77;;
6860;SDS011;3469;47.060;15.460;2024-03-02T04:26:51;46.57;;;27.37;;
6860;SDS011;3469;47.060;15.460;2024-03-02T04:29:21;41.80;;;26.20;;
6860;SDS011;3469;47.060;15.460;2024-03-02T04:31:52;46.83;;;26.70;;
6860;SDS011;3469;47.060;15.460;2024-03-02T04:34:22;48.27;;;26.70;;
6860;SDS011;3469;47.060;15.460;2024-03-02T04:36:52;45.37;;;25.13;;
6860;SDS011;3469;47.060;15.460;2024-03-02T04:39:26;46.17;;;25.43;;
6860;SDS011;3469;47.060;15.460;2024-03-02T04:41:56;44.30;;;24.87;;
6860;SDS011;3469;47.060;15.460;2024-03-02T04:44:26;44.20;;;24.20;;
6860;SDS011;3469;47.060;15.460;2024-03-02T04:46:56;50.43;;;26.87;;
6860;SDS011;3469;47.060;15.460;2024-03-02T04:49:27;46.17;;;26.40;;
6860;SDS011;3469;47.060;15.460;2024-03-02T04:51:57;42.80;;;24.97;;
6860;SDS011;3469;47.060;15.460;2024-03-02T04:54:32;46.70;;;26.60;;
6860;SDS011;3469;47.060;15.460;2024-03-02T04:57:22;45.77;;;26.43;;
6860;SDS011;3469;47.060;15.460;2024-03-02T04:59:53;40.50;;;24.40;;
6860;SDS011;3469;47.060;15.460;2024-03-02T05:02:23;44.40;;;25.07;;
6860;SDS011;3469;47.060;15.460;2024-03-02T05:04:54;45.23;;;26.83;;
6860;SDS011;3469;47.060;15.460;2024-03-02T05:07:24;43.03;;;25.03;;
6860;SDS011;3469;47.060;15.460;2024-03-02T05:09:57;39.23;;;24.30;;
6860;SDS011;3469;47.060;15.460;2024-03-02T05:12:27;43.03;;;25.83;;
6860;SDS011;3469;47.060;15.460;2024-03-02T05:15:24;46.67;;;26.43;;
6860;SDS011;3469;47.060;15.460;2024-03-02T05:17:54;41.57;;;25.70;;
6860;SDS011;3469;47.060;15.460;2024-03-02T05:20:27;43.90;;;25.93;;
6860;SDS011;3469;47.060;15.460;2024-03-02T05:22:57;53.17;;;26.43;;
6860;SDS011;3469;47.060;15.460;2024-03-02T05:25:30;44.40;;;23.13;;
6860;SDS011;3469;47.060;15.460;2024-03-02T05:28:02;41.87;;;22.77;;
6860;SDS011;3469;47.060;15.460;2024-03-02T05:30:33;38.67;;;22.80;;
6860;SDS011;3469;47.060;15.460;2024-03-02T05:33:03;39.50;;;21.90;;
6860;SDS011;3469;47.060;15.460;2024-03-02T05:35:34;41.80;;;24.37;;
6860;SDS011;3469;47.060;15.460;2024-03-02T05:38:05;47.77;;;24.47;;
6860;SDS011;3469;47.060;15.460;2024-03-02T05:40:38;38.90;;;22.67;;
6860;SDS011;3469;47.060;15.460;2024-03-02T05:43:09;43.53;;;24.20;;
6860;SDS011;3469;47.060;15.460;2024-03-02T05:45:39;37.43;;;23.20;;
6860;SDS011;3469;47.060;15.460;2024-03-02T05:48:09;48.10;;;24.67;;
6860;SDS011;3469;47.060;15.460;2024-03-02T05:50:40;39.83;;;22.60;;
6860;SDS011;3469;47.060;15.460;2024-03-02T05:53:11;44.50;;;24.83;;
6860;SDS011;3469;47.060;15.460;2024-03-02T05:55:48;41.03;;;23.77;;
6860;SDS011;3469;47.060;15.460;2024-03-02T05:58:22;42.77;;;23.80;;
6860;SDS011;3469;47.060;15.460;2024-03-02T06:01:04;46.20;;;24.00;;
6860;SDS011;3469;47.060;15.460;2024-03-02T06:03:35;38.80;;;23.03;;
6860;SDS011;3469;47.060;15.460;2024-03-02T06:06:05;41.77;;;23.97;;
6860;SDS011;3469;47.060;15.460;2024-03-02T06:08:36;41.13;;;24.50;;
6860;SDS011;3469;47.060;15.460;2024-03-02T06:11:09;37.60;;;22.10;;
6860;SDS011;3469;47.060;15.460;2024-03-02T06:13:39;37.20;;;22.47;;
6860;SDS011;3469;47.060;15.460;2024-03-02T06:16:09;39.57;;;22.50;;
6860;SDS011;3469;47.060;15.460;2024-03-02T06:18:40;45.40;;;24.43;;
6860;SDS011;3469;47.060;15.460;2024-03-02T06:21:11;41.33;;;23.63;;
6860;SDS011;3469;47.060;15.460;2024-03-02T06:23:42;38.63;;;21.30;;
6860;SDS011;3469;47.060;15.460;2024-03-02T06:26:15;43.30;;;23.57;;
6860;SDS011;3469;47.060;15.460;2024-03-02T06:28:50;39.00;;;22.70;;
6860;SDS011;3469;47.060;15.460;2024-03-02T06:31:22;39.13;;;22.90;;
6860;SDS011;3469;47.060;15.460;2024-03-02T06:33:53;39.97;;;22.20;;
6860;SDS011;3469;47.060;15.460;2024-03-02T06:36:24;32.90;;;21.10;;
6860;SDS011;3469;47.060;15.460;2024-03-02T06:38:54;33.10;;;20.70;;
6860;SDS011;3469;47.060;15.460;2024-03-02T06:41:27;34.93;;;21.43;;
6860;SDS011;3469;47.060;15.460;2024-03-02T06:43:57;43.00;;;23.47;;
6860;SDS011;3469;47.060;15.460;2024-03-02T06:46:29;36.67;;;22.00;;
6860;SDS011;3469;47.060;15.460;2024-03-02T06:48:59;35.90;;;21.37;;
6860;SDS011;3469;47.060;15.460;2024-03-02T06:51:31;34.90;;;21.50;;
6860;SDS011;3469;47.060;15.460;2024-03-02T06:54:03;38.47;;;21.33;;
6860;SDS011;3469;47.060;15.460;2024-03-02T06:56:36;36.53;;;21.57;;
6860;SDS011;3469;47.060;15.460;2024-03-02T06:59:07;40.80;;;21.73;;
6860;SDS011;3469;47.060;15.460;2024-03-02T07:01:37;40.00;;;21.53;;
6860;SDS011;3469;47.060;15.460;2024-03-02T07:04:08;36.77;;;20.93;;
6860;SDS011;3469;47.060;15.460;2024-03-02T07:06:39;34.93;;;20.40;;
6860;SDS011;3469;47.060;15.460;2024-03-02T07:09:09;38.60;;;22.73;;
6860;SDS011;3469;47.060;15.460;2024-03-02T07:11:42;37.33;;;23.27;;
6860;SDS011;3469;47.060;15.460;2024-03-02T07:14:17;36.70;;;22.03;;
6860;SDS011;3469;47.060;15.460;2024-03-02T07:16:49;36.23;;;21.50;;
6860;SDS011;3469;47.060;15.460;2024-03-02T07:19:21;38.63;;;22.70;;
6860;SDS011;3469;47.060;15.460;2024-03-02T07:21:52;40.80;;;22.40;;
6860;SDS011;3469;47.060;15.460;2024-03-02T07:24:22;35.97;;;22.00;;
6860;SDS011;3469;47.060;15.460;2024-03-02T07:26:55;41.47;;;22.97;;
6860;SDS011;3469;47.060;15.460;2024-03-02T07:29:27;45.93;;;22.67;;
6860;SDS011;3469;47.060;15.460;2024-03-02T07:31:57;34.37;;;21.70;;
6860;SDS011;3469;47.060;15.460;2024-03-02T07:34:27;36.87;;;21.70;;
6860;SDS011;3469;47.060;15.460;2024-03-02T07:36:58;36.10;;;21.60;;
6860;SDS011;3469;47.060;15.460;2024-03-02T07:39:28;32.23;;;21.20;;
6860;SDS011;3469;47.060;15.460;2024-03-02T07:42:02;38.27;;;21.57;;
6860;SDS011;3469;47.060;15.460;2024-03-02T07:44:33;32.20;;;19.20;;
6860;SDS011;3469;47.060;15.460;2024-03-02T07:47:06;39.67;;;23.00;;
6860;SDS011;3469;47.060;15.460;2024-03-02T07:49:37;34.90;;;21.17;;
6860;SDS011;3469;47.060;15.460;2024-03-02T07:52:10;35.53;;;22.10;;
6860;SDS011;3469;47.060;15.460;2024-03-02T07:54:41;31.17;;;19.90;;
6860;SDS011;3469;47.060;15.460;2024-03-02T07:57:14;32.90;;;21.07;;
6860;SDS011;3469;47.060;15.460;2024-03-02T07:59:44;37.67;;;20.60;;
6860;SDS011;3469;47.060;15.460;2024-03-02T08:02:15;36.70;;;20.07;;
6860;SDS011;3469;47.060;15.460;2024-03-02T08:04:45;37.80;;;18.93;;
6860;SDS011;3469;47.060;15.460;2024-03-02T08:07:17;27.67;;;17.23;;
6860;SDS011;3469;47.060;15.460;2024-03-02T08:09:47;30.10;;;19.57;;
6860;SDS011;3469;47.060;15.460;2024-03-02T08:12:20;30.87;;;19.10;;
6860;SDS011;3469;47.060;15.460;2024-03-02T08:14:50;35.10;;;22.67;;
6860;SDS011;3469;47.060;15.460;2024-03-02T08:17:21;32.53;;;19.60;;
6860;SDS011;3469;47.060;15.460;2024-03-02T08:19:51;36.87;;;20.93;;
6860;SDS011;3469;47.060;15.460;2024-03-02T08:22:22;30.57;;;20.87;;
6860;SDS011;3469;47.060;15.460;2024-03-02T08:24:53;33.50;;;21.67;;
6860;SDS011;3469;47.060;15.460;2024-03-02T08:27:26;34.20;;;20.50;;
6860;SDS011;3469;47.060;15.460;2024-03-02T08:29:56;35.30;;;19.83;;
6860;SDS011;3469;47.060;15.460;2024-03-02T08:32:26;32.23;;;20.27;;
6860;SDS011;3469;47.060;15.460;2024-03-02T08:34:57;29.60;;;19.10;;
6860;SDS011;3469;47.060;15.460;2024-03-02T08:37:27;27.50;;;19.10;;
6860;SDS011;3469;47.060;15.460;2024-03-02T08:39:58;28.20;;;17.90;;
6860;SDS011;3469;47.060;15.460;2024-03-02T08:42:33;30.20;;;20.50;;
6860;SDS011;3469;47.060;15.460;2024-03-02T08:45:04;27.23;;;20.13;;
6860;SDS011;3469;47.060;15.460;2024-03-02T08:47:34;28.60;;;18.67;;
6860;SDS011;3469;47.060;15.460;2024-03-02T08:50:05;30.43;;;19.93;;
6860;SDS011;3469;47.060;15.460;2024-03-02T08:52:37;23.77;;;17.77;;
6860;SDS011;3469;47.060;15.460;2024-03-02T08:55:07;32.90;;;20.47;;
6860;SDS011;3469;47.060;15.460;2024-03-02T08:57:40;24.33;;;16.27;;
6860;SDS011;3469;47.060;15.460;2024-03-02T09:00:12;26.30;;;17.60;;
6860;SDS011;3469;47.060;15.460;2024-03-02T09:02:45;26.00;;;17.90;;
6860;SDS011;3469;47.060;15.460;2024-03-02T09:05:15;26.37;;;17.47;;
6860;SDS011;3469;47.060;15.460;2024-03-02T09:07:46;25.97;;;18.07;;
6860;SDS011;3469;47.060;15.460;2024-03-02T09:10:17;24.37;;;16.77;;
6860;SDS011;3469;47.060;15.460;2024-03-02T09:12:49;22.90;;;16.03;;
6860;SDS011;3469;47.060;15.460;2024-03-02T09:15:20;25.67;;;16.57;;
6860;SDS011;3469;47.060;15.460;2024-03-02T09:17:50;27.53;;;18.33;;
6860;SDS011;3469;47.060;15.460;2024-03-02T09:20:21;25.67;;;17.90;;
6860;SDS011;3469;47.060;15.460;2024-03-02T09:22:51;23.70;;;16.40;;
6860;SDS011;3469;47.060;15.460;2024-03-02T09:25:22;23.23;;;16.07;;
6860;SDS011;3469;47.060;15.460;2024-03-02T09:27:55;24.67;;;16.10;;
6860;SDS011;3469;47.060;15.460;2024-03-02T09:30:26;24.73;;;15.60;;
6860;SDS011;3469;47.060;15.460;2024-03-02T09:32:57;25.07;;;16.97;;
6860;SDS011;3469;47.060;15.460;2024-03-02T09:35:30;23.47;;;17.00;;
6860;SDS011;3469;47.060;15.460;2024-03-02T09:38:01;33.27;;;19.53;;
6860;SDS011;3469;47.060;15.460;2024-03-02T09:40:31;24.07;;;17.00;;
6860;SDS011;3469;47.060;15.460;2024-03-02T09:43:04;25.33;;;16.83;;
6860;SDS011;3469;47.060;15.460;2024-03-02T09:45:34;28.53;;;17.03;;
6860;SDS011;3469;47.060;15.460;2024-03-02T09:48:06;24.60;;;16.07;;
6860;SDS011;3469;47.060;15.460;2024-03-02T09:50:37;23.13;;;15.43;;
6860;SDS011;3469;47.060;15.460;2024-03-02T09:53:07;22.43;;;15.77;;
6860;SDS011;3469;47.060;15.460;2024-03-02T09:55:38;20.63;;;14.37;;
6860;SDS011;3469;47.060;15.460;2024-03-02T09:58:13;20.97;;;15.03;;
6860;SDS011;3469;47.060;15.460;2024-03-02T10:00:43;24.83;;;16.60;;
6860;SDS011;3469;47.060;15.460;2024-03-02T10:03:14;20.97;;;16.20;;
6860;SDS011;3469;47.060;15.460;2024-03-02T10:05:45;21.07;;;15.00;;
6860;SDS011;3469;47.060;15.460;2024-03-02T10:08:15;23.67;;;16.40;;
6860;SDS011;3469;47.060;15.460;2024-03-02T10:10:45;22.20;;;15.73;;
6860;SDS011;3469;47.060;15.460;2024-03-02T10:13:18;21.47;;;15.60;;
6860;SDS011;3469;47.060;15.460;2024-03-02T10:15:49;23.70;;;16.63;;
6860;SDS011;3469;47.060;15.460;2024-03-02T10:18:26;25.30;;;16.17;;
6860;SDS011;3469;47.060;15.460;2024-03-02T10:21:04;22.70;;;17.27;;
6860;SDS011;3469;47.060;15.460;2024-03-02T10:23:42;18.43;;;15.23;;
6860;SDS011;3469;47.060;15.460;2024-03-02T10:26:16;25.30;;;16.80;;
6860;SDS011;3469;47.060;15.460;2024-03-02T10:28:50;18.73;;;14.03;;
6860;SDS011;3469;47.060;15.460;2024-03-02T10:31:26;21.63;;;14.20;;
6860;SDS011;3469;47.060;15.460;2024-03-02T10:33:58;24.60;;;15.20;;
6860;SDS011;3469;47.060;15.460;2024-03-02T10:36:29;20.23;;;14.20;;
6860;SDS011;3469;47.060;15.460;2024-03-02T10:39:00;21.00;;;15.13;;
6860;SDS011;3469;47.060;15.460;2024-03-02T10:41:33;19.97;;;13.33;;
6860;SDS011;3469;47.060;15.460;2024-03-02T10:44:07;22.60;;;15.00;;
6860;SDS011;3469;47.060;15.460;2024-03-02T10:46:38;19.50;;;12.97;;
6860;SDS011;3469;47.060;15.460;2024-03-02T10:49:09;17.07;;;12.43;;
6860;SDS011;3469;47.060;15.460;2024-03-02T10:51:39;28.80;;;13.30;;
6860;SDS011;3469;47.060;15.460;2024-03-02T10:54:10;17.50;;;12.70;;
6860;SDS011;3469;47.060;15.460;2024-03-02T10:56:40;17.87;;;12.13;;
6860;SDS011;3469;47.060;15.460;2024-03-02T10:59:16;13.97;;;11.03;;
6860;SDS011;3469;47.060;15.460;2024-03-02T11:01:48;14.97;;;10.57;;
6860;SDS011;3469;47.060;15.460;2024-03-02T11:04:19;14.90;;;11.93;;
6860;SDS011;3469;47.060;15.460;2024-03-02T11:06:50;18.23;;;11.60;;
6860;SDS011;3469;47.060;15.460;2024-03-02T11:09:22;16.80;;;11.70;;
6860;SDS011;3469;47.060;15.460;2024-03-02T11:11:55;16.93;;;11.40;;
6860;SDS011;3469;47.060;15.460;2024-03-02T11:14:33;13.40;;;10.00;;
6860;SDS011;3469;47.060;15.460;2024-03-02T11:17:07;14.67;;;11.80;;
6860;SDS011;3469;47.060;15.460;2024-03-02T11:19:38;14.90;;;10.87;;
6860;SDS011;3469;47.060;15.460;2024-03-02T11:22:08;13.00;;;10.13;;
6860;SDS011;3469;47.060;15.460;2024-03-02T11:24:40;13.57;;;10.93;;
6860;SDS011;3469;47.060;15.460;2024-03-02T11:33:24;13.30;;;11.13;;
6860;SDS011;3469;47.060;15.460;2024-03-02T11:35:58;15.40;;;11.10;;
6860;SDS011;3469;47.060;15.460;2024-03-02T11:38:29;14.80;;;10.43;;
6860;SDS011;3469;47.060;15.460;2024-03-02T11:41:01;13.27;;;9.70;;
6860;SDS011;3469;47.060;15.460;2024-03-02T11:43:36;13.30;;;10.40;;
6860;SDS011;3469;47.060;15.460;2024-03-02T11:46:10;12.63;;;10.30;;
6860;SDS011;3469;47.060;15.460;2024-03-02T11:48:40;15.80;;;10.30;;
6860;SDS011;3469;47.060;15.460;2024-03-02T11:51:10;16.87;;;9.10;;
6860;SDS011;3469;47.060;15.460;2024-03-02T11:53:41;13.73;;;9.90;;
6860;SDS011;3469;47.060;15.460;2024-03-02T11:56:12;10.80;;;8.30;;
6860;SDS011;3469;47.060;15.460;2024-03-02T11:58:44;11.20;;;8.90;;
6860;SDS011;3469;47.060;15.460;2024-03-02T12:01:17;9.40;;;7.13;;
6860;SDS011;3469;47.060;15.460;2024-03-02T12:03:47;10.33;;;7.57;;
6860;SDS011;3469;47.060;15.460;2024-03-02T12:06:19;12.57;;;9.00;;
6860;SDS011;3469;47.060;15.460;2024-03-02T12:08:52;12.00;;;8.47;;
6860;SDS011;3469;47.060;15.460;2024-03-02T12:11:22;9.43;;;7.17;;
6860;SDS011;3469;47.060;15.460;2024-03-02T12:13:53;12.07;;;8.90;;
6860;SDS011;3469;47.060;15.460;2024-03-02T12:16:28;10.93;;;7.30;;
6860;SDS011;3469;47.060;15.460;2024-03-02T12:18:59;10.23;;;7.63;;
6860;SDS011;3469;47.060;15.460;2024-03-02T12:21:29;11.03;;;8.80;;
6860;SDS011;3469;47.060;15.460;2024-03-02T12:24:00;12.60;;;8.13;;
6860;SDS011;3469;47.060;15.460;2024-03-02T12:26:30;14.33;;;7.27;;
6860;SDS011;3469;47.060;15.460;2024-03-02T12:29:00;11.27;;;7.57;;
6860;SDS011;3469;47.060;15.460;2024-03-02T12:31:34;11.00;;;7.73;;
6860;SDS011;3469;47.060;15.460;2024-03-02T12:34:07;9.43;;;7.03;;
6860;SDS011;3469;47.060;15.460;2024-03-02T12:36:38;10.60;;;6.50;;
6860;SDS011;3469;47.060;15.460;2024-03-02T12:39:09;8.50;;;7.10;;
6860;SDS011;3469;47.060;15.460;2024-03-02T12:41:39;10.50;;;7.87;;
6860;SDS011;3469;47.060;15.460;2024-03-02T12:44:10;8.53;;;7.50;;
6860;SDS011;3469;47.060;15.460;2024-03-02T12:46:43;9.03;;;6.43;;
6860;SDS011;3469;47.060;15.460;2024-03-02T12:49:14;10.77;;;6.40;;
6860;SDS011;3469;47.060;15.460;2024-03-02T12:51:47;7.70;;;5.97;;
6860;SDS011;3469;47.060;15.460;2024-03-02T12:54:21;10.20;;;6.43;;
6860;SDS011;3469;47.060;15.460;2024-03-02T12:56:54;8.83;;;7.13;;
6860;SDS011;3469;47.060;15.460;2024-03-02T12:59:26;8.60;;;5.40;;
6860;SDS011;3469;47.060;15.460;2024-03-02T13:01:59;8.43;;;6.47;;
6860;SDS011;3469;47.060;15.460;2024-03-02T13:04:29;9.27;;;6.37;;
6860;SDS011;3469;47.060;15.460;2024-03-02T13:07:00;10.13;;;6.50;;
6860;SDS011;3469;47.060;15.460;2024-03-02T13:09:30;8.30;;;6.40;;
6860;SDS011;3469;47.060;15.460;2024-03-02T13:12:01;8.33;;;6.17;;
6860;SDS011;3469;47.060;15.460;2024-03-02T13:14:33;13.10;;;7.00;;
6860;SDS011;3469;47.060;15.460;2024-03-02T13:17:06;7.93;;;6.27;;
6860;SDS011;3469;47.060;15.460;2024-03-02T13:19:38;8.30;;;5.63;;
6860;SDS011;3469;47.060;15.460;2024-03-02T13:22:08;7.13;;;5.87;;
6860;SDS011;3469;47.060;15.460;2024-03-02T13:24:38;7.20;;;5.70;;
6860;SDS011;3469;47.060;15.460;2024-03-02T13:27:09;6.90;;;5.40;;
6860;SDS011;3469;47.060;15.460;2024-03-02T13:29:40;5.90;;;5.10;;
6860;SDS011;3469;47.060;15.460;2024-03-02T13:32:13;7.30;;;5.87;;
6860;SDS011;3469;47.060;15.460;2024-03-02T13:34:43;9.50;;;6.30;;
6860;SDS011;3469;47.060;15.460;2024-03-02T13:37:14;10.17;;;5.83;;
6860;SDS011;3469;47.060;15.460;2024-03-02T13:39:44;6.70;;;5.70;;
6860;SDS011;3469;47.060;15.460;2024-03-02T13:42:14;10.10;;;5.53;;
6860;SDS011;3469;47.060;15.460;2024-03-02T13:44:45;6.70;;;5.87;;
6860;SDS011;3469;47.060;15.460;2024-03-02T13:47:19;10.07;;;6.10;;
6860;SDS011;3469;47.060;15.460;2024-03-02T13:49:50;8.63;;;6.20;;
6860;SDS011;3469;47.060;15.460;2024-03-02T13:52:20;12.93;;;6.63;;
6860;SDS011;3469;47.060;15.460;2024-03-02T13:54:52;9.50;;;6.60;;
6860;SDS011;3469;47.060;15.460;2024-03-02T13:57:23;9.57;;;6.00;;
6860;SDS011;3469;47.060;15.460;2024-03-02T13:59:53;9.77;;;7.03;;
6860;SDS011;3469;47.060;15.460;2024-03-02T14:02:26;7.83;;;6.00;;
6860;SDS011;3469;47.060;15.460;2024-03-02T14:05:00;7.53;;;5.80;;
6860;SDS011;3469;47.060;15.460;2024-03-02T14:07:31;6.57;;;5.40;;
6860;SDS011;3469;47.060;15.460;2024-03-02T14:10:01;8.10;;;6.03;;
6860;SDS011;3469;47.060;15.460;2024-03-02T14:12:32;6.53;;;5.93;;
6860;SDS011;3469;47.060;15.460;2024-03-02T14:15:02;8.47;;;6.57;;
6860;SDS011;3469;47.060;15.460;2024-03-02T14:17:36;23.23;;;7.00;;
6860;SDS011;3469;47.060;15.460;2024-03-02T14:20:07;11.63;;;7.13;;
6860;SDS011;3469;47.060;15.460;2024-03-02T14:22:39;9.60;;;6.70;;
6860;SDS011;3469;47.060;15.460;2024-03-02T14:25:10;12.00;;;7.43;;
6860;SDS011;3469;47.060;15.460;2024-03-02T14:27:40;13.30;;;8.30;;
6860;SDS011;3469;47.060;15.460;2024-03-02T14:30:28;13.07;;;8.17;;
6860;SDS011;3469;47.060;15.460;2024-03-02T14:33:01;13.80;;;9.00;;
6860;SDS011;3469;47.060;15.460;2024-03-02T14:35:31;14.33;;;8.60;;
6860;SDS011;3469;47.060;15.460;2024-03-02T14:38:01;14.80;;;8.80;;
6860;SDS011;3469;47.060;15.460;2024-03-02T14:40:32;11.10;;;8.50;;
6860;SDS011;3469;47.060;15.460;2024-03-02T14:43:02;12.13;;;8.20;;
6860;SDS011;3469;47.060;15.460;2024-03-02T14:45:32;12.83;;;8.10;;
6860;SDS011;3469;47.060;15.460;2024-03-02T14:48:07;12.83;;;7.53;;
6860;SDS011;3469;47.060;15.460;2024-03-02T14:50:37;10.80;;;7.40;;
6860;SDS011;3469;47.060;15.460;2024-03-02T14:53:08;10.60;;;7.70;;
6860;SDS011;3469;47.060;15.460;2024-03-02T14:55:38;10.80;;;7.97;;
6860;SDS011;3469;47.060;15.460;2024-03-02T14:58:09;13.43;;;7.20;;
6860;SDS011;3469;47.060;15.460;2024-03-02T15:00:39;15.33;;;7.63;;
6860;SDS011;3469;47.060;15.460;2024-03-02T15:03:12;12.17;;;8.03;;
6860;SDS011;3469;47.060;15.460;2024-03-02T15:05:43;12.20;;;8.33;;
6860;SDS011;3469;47.060;15.460;2024-03-02T15:08:13;13.70;;;8.43;;
6860;SDS011;3469;47.060;15.460;2024-03-02T15:10:43;12.90;;;7.70;;